»·PEaware :: N704YA CYYJ-KTIW

N704YA :: CYYJ-KTIW

FLIGHT INFORMATION

Flight Status: Arrived
Operator: Privately registered:
United States
More flights under this callsign
Pilot: Wayne R. (17783)
Aircraft: CESSNA 150 COMMUTER AEROBAT
(C150)
More flights by this aircraft type
Origin: CYYJ Victoria Intl
Canada
Destination: KTIW Tacoma Narrows
United States
More flights between these airports :: More routes between these airports
Route:
File this flight plan on PilotEdge
Remarks:
Altitude:
(Current/Filed)
5,500ft
Speed:
(Current/Filed)
95kts
Departed: 21-Feb-20 04:27 PM
Arrived: 21-Feb-20 05:27 PM
Distance/Time
Traveled:
89nm/1:00
Distance/Time
To Go:
Arrived

Flight Plot

Page will automatically refresh every two minutes.


Map Options




Map Legend


Flown Route
Filed Route
Departure Airport
Arrival Airport
Navaid (VOR, NDB)
Fix

Horizontal Profiles

Position Reports

Time Latitude Longitude Heading Altitude Ground
Speed
21-Feb-20 16:23 48.653016 -123.433656 152 63ft 0kts
21-Feb-20 16:24 48.653016 -123.433656 152 63ft 0kts
21-Feb-20 16:25 48.653016 -123.433656 152 63ft 0kts
21-Feb-20 16:26 48.650744 -123.431811 151 61ft 54kts
21-Feb-20 16:27 48.632241 -123.420622 156 739ft 73kts
21-Feb-20 16:28 48.613126 -123.409323 160 1428ft 77kts
21-Feb-20 16:29 48.591786 -123.399216 156 1874ft 82kts
21-Feb-20 16:30 48.571078 -123.383966 155 2177ft 83kts
21-Feb-20 16:31 48.550327 -123.367970 155 2446ft 84kts
21-Feb-20 16:32 48.529359 -123.351244 154 2699ft 85kts
21-Feb-20 16:33 48.508258 -123.334004 154 2925ft 87kts
21-Feb-20 16:34 48.486617 -123.317274 156 3128ft 88kts
21-Feb-20 16:35 48.464681 -123.300432 156 3283ft 89kts
21-Feb-20 16:36 48.442175 -123.283092 156 3310ft 90kts
21-Feb-20 16:37 48.419591 -123.265697 156 3315ft 91kts
21-Feb-20 16:38 48.397031 -123.248353 156 3318ft 91kts
21-Feb-20 16:39 48.373875 -123.232993 161 3318ft 90kts
21-Feb-20 16:40 48.350452 -123.219146 161 3311ft 90kts
21-Feb-20 16:41 48.326906 -123.205261 160 3304ft 90kts
21-Feb-20 16:42 48.303467 -123.191210 160 3289ft 91kts
21-Feb-20 16:43 48.279793 -123.176016 160 3264ft 93kts
21-Feb-20 16:44 48.255701 -123.159739 160 3234ft 96kts
21-Feb-20 16:45 48.231111 -123.142654 160 3208ft 99kts
21-Feb-20 16:46 48.205776 -123.124983 160 3190ft 101kts
21-Feb-20 16:47 48.179748 -123.107190 160 3148ft 104kts
21-Feb-20 16:48 48.153187 -123.089690 160 3125ft 103kts
21-Feb-20 16:49 48.127141 -123.072628 160 3217ft 101kts
21-Feb-20 16:50 48.101185 -123.055423 159 3281ft 102kts
21-Feb-20 16:51 48.075165 -123.038002 159 3328ft 102kts
21-Feb-20 16:52 48.049160 -123.020422 159 3382ft 103kts
21-Feb-20 16:53 48.023439 -123.002859 159 3427ft 102kts
21-Feb-20 16:54 47.997750 -122.983992 158 3467ft 102kts
21-Feb-20 16:55 47.974016 -122.966596 158 3496ft 101kts
21-Feb-20 16:56 47.948925 -122.947752 158 3525ft 100kts
21-Feb-20 16:57 47.925715 -122.929993 158 3548ft 98kts
21-Feb-20 16:58 47.901813 -122.911568 158 3565ft 95kts
21-Feb-20 16:59 47.880047 -122.894947 157 3574ft 93kts
21-Feb-20 17:00 47.856931 -122.877870 157 3576ft 91kts
21-Feb-20 17:01 47.834213 -122.861776 157 3563ft 90kts
21-Feb-20 17:02 47.813438 -122.847166 157 3543ft 90kts
21-Feb-20 17:03 47.805228 -122.842023 160 3535ft 90kts
21-Feb-20 17:04 47.781992 -122.827935 160 3512ft 90kts
21-Feb-20 17:05 47.758774 -122.813793 160 3492ft 90kts
21-Feb-20 17:06 47.735024 -122.797735 160 3487ft 93kts
21-Feb-20 17:07 47.711273 -122.781480 160 3512ft 93kts
21-Feb-20 17:08 47.687513 -122.765368 164 3503ft 93kts
21-Feb-20 17:09 47.663424 -122.751188 162 3456ft 93kts
21-Feb-20 17:10 47.640702 -122.737743 162 3412ft 93kts
21-Feb-20 17:11 47.620482 -122.725748 162 3374ft 92kts
21-Feb-20 17:12 47.596387 -122.711414 162 3332ft 92kts
21-Feb-20 17:13 47.574197 -122.698179 162 3297ft 92kts
21-Feb-20 17:14 47.550289 -122.683870 162 3260ft 92kts
21-Feb-20 17:15 47.526320 -122.669477 162 3226ft 92kts
21-Feb-20 17:16 47.502258 -122.654896 162 3180ft 94kts
21-Feb-20 17:17 47.477522 -122.639704 162 3112ft 97kts
21-Feb-20 17:18 47.452165 -122.624297 161 3051ft 99kts
21-Feb-20 17:19 47.426280 -122.608928 161 3007ft 101kts
21-Feb-20 17:20 47.400168 -122.593870 161 3091ft 101kts
21-Feb-20 17:21 47.373757 -122.578992 161 3166ft 102kts
21-Feb-20 17:22 47.347270 -122.564472 167 3236ft 101kts
21-Feb-20 17:23 47.322034 -122.567725 201 2239ft 101kts
21-Feb-20 17:24 47.294483 -122.573735 184 1010ft 95kts
21-Feb-20 17:25 47.271663 -122.577404 188 300ft 64kts
21-Feb-20 17:26 47.269085 -122.575333 78 294ft 9kts
21-Feb-20 17:27 47.269045 -122.575129 167 295ft 0kts
21-Feb-20 17:28 47.269045 -122.575129 167 295ft 0kts
21-Feb-20 17:29 47.269045 -122.575129 167 295ft 0kts
21-Feb-20 17:30 47.269045 -122.575129 167 295ft 0kts
21-Feb-20 17:31 47.269045 -122.575129 167 295ft 0kts
21-Feb-20 17:32 47.269045 -122.575129 167 295ft 0kts
21-Feb-20 17:33 47.269045 -122.575129 167 295ft 0kts
21-Feb-20 17:34 47.269045 -122.575129 167 295ft 0kts
21-Feb-20 17:35 47.269045 -122.575129 167 295ft 0kts
21-Feb-20 17:36 47.269045 -122.575129 167 295ft 0kts
21-Feb-20 17:37 47.269045 -122.575129 167 295ft 0kts
21-Feb-20 17:38 47.269045 -122.575129 167 295ft 0kts
21-Feb-20 17:39 47.269045 -122.575129 167 295ft 0kts
21-Feb-20 17:40 47.269045 -122.575129 167 295ft 0kts

Navigation Log

Ident Type
Flight plan parsing failed, navigation log unavailable